sensor_id;sensor_type;location;lat;lon;timestamp;pressure;altitude;pressure_sealevel;temperature;humidity
31082;BME280;17737;52.586;13.284;2023-08-12T00:00:03;101550.56;;;18.92;100.00
31082;BME280;17737;52.586;13.284;2023-08-12T00:02:38;101560.22;;;18.95;100.00
31082;BME280;17737;52.586;13.284;2023-08-12T00:05:07;101560.00;;;18.90;100.00
31082;BME280;17737;52.586;13.284;2023-08-12T00:07:37;101561.94;;;18.96;100.00
31082;BME280;17737;52.586;13.284;2023-08-12T00:10:08;101562.94;;;18.95;100.00
31082;BME280;17737;52.586;13.284;2023-08-12T00:12:39;101563.69;;;19.10;100.00
31082;BME280;17737;52.586;13.284;2023-08-12T00:15:09;101560.28;;;19.01;100.00
31082;BME280;17737;52.586;13.284;2023-08-12T00:17:37;101565.16;;;19.13;100.00
31082;BME280;17737;52.586;13.284;2023-08-12T00:20:09;101560.41;;;18.87;100.00
31082;BME280;17737;52.586;13.284;2023-08-12T00:22:39;101557.13;;;18.98;100.00
31082;BME280;17737;52.586;13.284;2023-08-12T00:25:08;101561.31;;;19.00;100.00
31082;BME280;17737;52.586;13.284;2023-08-12T00:27:36;101560.56;;;19.20;100.00
31082;BME280;17737;52.586;13.284;2023-08-12T00:30:07;101555.19;;;19.39;100.00
31082;BME280;17737;52.586;13.284;2023-08-12T00:32:36;101547.81;;;19.33;100.00
31082;BME280;17737;52.586;13.284;2023-08-12T00:35:05;101548.59;;;19.27;100.00
31082;BME280;17737;52.586;13.284;2023-08-12T00:37:33;101552.59;;;19.25;100.00
31082;BME280;17737;52.586;13.284;2023-08-12T00:40:01;101547.09;;;19.18;100.00
31082;BME280;17737;52.586;13.284;2023-08-12T00:42:30;101540.13;;;19.16;100.00
31082;BME280;17737;52.586;13.284;2023-08-12T00:44:58;101545.16;;;19.12;100.00
31082;BME280;17737;52.586;13.284;2023-08-12T00:47:28;101537.63;;;19.21;100.00
31082;BME280;17737;52.586;13.284;2023-08-12T00:49:58;101532.91;;;18.95;100.00
31082;BME280;17737;52.586;13.284;2023-08-12T00:52:27;101531.47;;;18.99;100.00
31082;BME280;17737;52.586;13.284;2023-08-12T00:54:55;101533.19;;;19.06;100.00
31082;BME280;17737;52.586;13.284;2023-08-12T00:57:23;101522.28;;;19.06;100.00
31082;BME280;17737;52.586;13.284;2023-08-12T00:59:51;101519.34;;;19.15;100.00
31082;BME280;17737;52.586;13.284;2023-08-12T01:02:21;101509.19;;;18.95;100.00
31082;BME280;17737;52.586;13.284;2023-08-12T01:04:51;101506.69;;;19.00;100.00
31082;BME280;17737;52.586;13.284;2023-08-12T01:07:20;101515.50;;;18.96;100.00
31082;BME280;17737;52.586;13.284;2023-08-12T01:09:48;101506.25;;;18.97;100.00
31082;BME280;17737;52.586;13.284;2023-08-12T01:12:19;101508.47;;;18.74;100.00
31082;BME280;17737;52.586;13.284;2023-08-12T01:15:03;101505.31;;;18.70;100.00
31082;BME280;17737;52.586;13.284;2023-08-12T01:17:37;101499.78;;;18.57;100.00
31082;BME280;17737;52.586;13.284;2023-08-12T01:20:11;101505.56;;;18.41;100.00
31082;BME280;17737;52.586;13.284;2023-08-12T01:22:44;101513.03;;;18.33;100.00
31082;BME280;17737;52.586;13.284;2023-08-12T01:25:14;101511.97;;;18.61;100.00
31082;BME280;17737;52.586;13.284;2023-08-12T01:27:42;101509.84;;;18.57;100.00
31082;BME280;17737;52.586;13.284;2023-08-12T01:30:11;101500.50;;;18.72;100.00
31082;BME280;17737;52.586;13.284;2023-08-12T01:32:43;101498.88;;;18.91;100.00
31082;BME280;17737;52.586;13.284;2023-08-12T01:35:20;101491.44;;;18.72;100.00
31082;BME280;17737;52.586;13.284;2023-08-12T01:37:54;101489.84;;;18.90;100.00
31082;BME280;17737;52.586;13.284;2023-08-12T01:40:27;101489.81;;;18.84;100.00
31082;BME280;17737;52.586;13.284;2023-08-12T01:42:57;101469.72;;;19.04;100.00
31082;BME280;17737;52.586;13.284;2023-08-12T01:45:25;101480.19;;;18.88;100.00
31082;BME280;17737;52.586;13.284;2023-08-12T01:47:53;101481.41;;;18.79;100.00
31082;BME280;17737;52.586;13.284;2023-08-12T01:50:22;101481.59;;;18.77;100.00
31082;BME280;17737;52.586;13.284;2023-08-12T01:52:49;101485.00;;;18.86;100.00
31082;BME280;17737;52.586;13.284;2023-08-12T01:55:18;101474.88;;;18.80;100.00
31082;BME280;17737;52.586;13.284;2023-08-12T01:57:47;101473.88;;;18.87;100.00
31082;BME280;17737;52.586;13.284;2023-08-12T02:00:15;101470.06;;;18.82;100.00
31082;BME280;17737;52.586;13.284;2023-08-12T02:02:43;101460.63;;;18.84;100.00
31082;BME280;17737;52.586;13.284;2023-08-12T02:05:13;101463.53;;;18.76;100.00
31082;BME280;17737;52.586;13.284;2023-08-12T02:07:42;101461.22;;;18.73;100.00
31082;BME280;17737;52.586;13.284;2023-08-12T02:10:10;101459.53;;;18.66;100.00
31082;BME280;17737;52.586;13.284;2023-08-12T02:12:40;101453.66;;;18.75;100.00
31082;BME280;17737;52.586;13.284;2023-08-12T02:15:10;101462.28;;;18.72;100.00
31082;BME280;17737;52.586;13.284;2023-08-12T02:17:38;101458.28;;;18.81;100.00
31082;BME280;17737;52.586;13.284;2023-08-12T02:20:07;101442.78;;;18.88;100.00
31082;BME280;17737;52.586;13.284;2023-08-12T02:22:35;101444.28;;;19.04;100.00
31082;BME280;17737;52.586;13.284;2023-08-12T02:25:04;101437.59;;;19.00;100.00
31082;BME280;17737;52.586;13.284;2023-08-12T02:27:32;101438.19;;;18.95;100.00
31082;BME280;17737;52.586;13.284;2023-08-12T02:30:01;101436.88;;;18.85;100.00
31082;BME280;17737;52.586;13.284;2023-08-12T02:32:30;101437.25;;;18.62;100.00
31082;BME280;17737;52.586;13.284;2023-08-12T02:34:58;101438.38;;;18.87;100.00
31082;BME280;17737;52.586;13.284;2023-08-12T02:37:26;101435.25;;;18.97;100.00
31082;BME280;17737;52.586;13.284;2023-08-12T02:39:54;101433.13;;;18.86;100.00
31082;BME280;17737;52.586;13.284;2023-08-12T02:42:22;101421.78;;;18.89;100.00
31082;BME280;17737;52.586;13.284;2023-08-12T02:44:51;101421.97;;;18.81;100.00
31082;BME280;17737;52.586;13.284;2023-08-12T02:47:19;101422.13;;;18.73;100.00
31082;BME280;17737;52.586;13.284;2023-08-12T02:49:48;101420.69;;;18.77;100.00
31082;BME280;17737;52.586;13.284;2023-08-12T02:52:16;101417.31;;;18.75;100.00
31082;BME280;17737;52.586;13.284;2023-08-12T02:54:44;101411.72;;;18.89;100.00
31082;BME280;17737;52.586;13.284;2023-08-12T02:57:12;101411.72;;;18.96;100.00
31082;BME280;17737;52.586;13.284;2023-08-12T02:59:40;101415.84;;;18.66;100.00
31082;BME280;17737;52.586;13.284;2023-08-12T03:02:08;101422.94;;;18.54;100.00
31082;BME280;17737;52.586;13.284;2023-08-12T03:04:36;101414.53;;;18.55;100.00
31082;BME280;17737;52.586;13.284;2023-08-12T03:07:06;101409.97;;;18.69;100.00
31082;BME280;17737;52.586;13.284;2023-08-12T03:09:34;101414.59;;;18.75;100.00
31082;BME280;17737;52.586;13.284;2023-08-12T03:12:03;101413.94;;;18.73;100.00
31082;BME280;17737;52.586;13.284;2023-08-12T03:14:32;101412.09;;;18.80;100.00
31082;BME280;17737;52.586;13.284;2023-08-12T03:17:00;101406.38;;;18.68;100.00
31082;BME280;17737;52.586;13.284;2023-08-12T03:19:28;101400.78;;;18.83;100.00
31082;BME280;17737;52.586;13.284;2023-08-12T03:21:56;101397.75;;;18.65;100.00
31082;BME280;17737;52.586;13.284;2023-08-12T03:24:25;101395.03;;;18.58;100.00
31082;BME280;17737;52.586;13.284;2023-08-12T03:26:53;101404.84;;;18.53;100.00
31082;BME280;17737;52.586;13.284;2023-08-12T03:29:21;101392.94;;;18.60;100.00
31082;BME280;17737;52.586;13.284;2023-08-12T03:31:49;101390.78;;;18.49;100.00
31082;BME280;17737;52.586;13.284;2023-08-12T03:34:17;101383.03;;;18.59;100.00
31082;BME280;17737;52.586;13.284;2023-08-12T03:36:45;101377.00;;;18.77;100.00
31082;BME280;17737;52.586;13.284;2023-08-12T03:39:14;101384.31;;;18.57;100.00
31082;BME280;17737;52.586;13.284;2023-08-12T03:41:44;101384.31;;;18.57;100.00
31082;BME280;17737;52.586;13.284;2023-08-12T03:44:12;101389.44;;;18.39;100.00
31082;BME280;17737;52.586;13.284;2023-08-12T03:46:41;101392.31;;;18.24;100.00
31082;BME280;17737;52.586;13.284;2023-08-12T03:49:09;101391.31;;;18.32;100.00
31082;BME280;17737;52.586;13.284;2023-08-12T03:51:37;101380.44;;;18.38;100.00
31082;BME280;17737;52.586;13.284;2023-08-12T03:54:05;101377.56;;;18.53;100.00
31082;BME280;17737;52.586;13.284;2023-08-12T03:56:34;101373.63;;;18.62;100.00
31082;BME280;17737;52.586;13.284;2023-08-12T03:59:03;101371.53;;;18.64;100.00
31082;BME280;17737;52.586;13.284;2023-08-12T04:01:31;101364.13;;;18.45;100.00
31082;BME280;17737;52.586;13.284;2023-08-12T04:03:59;101366.53;;;18.27;100.00
31082;BME280;17737;52.586;13.284;2023-08-12T04:06:27;101363.28;;;18.51;100.00
31082;BME280;17737;52.586;13.284;2023-08-12T04:08:55;101360.19;;;18.67;100.00
31082;BME280;17737;52.586;13.284;2023-08-12T04:11:23;101351.25;;;19.19;100.00
31082;BME280;17737;52.586;13.284;2023-08-12T04:13:51;101352.91;;;19.06;100.00
31082;BME280;17737;52.586;13.284;2023-08-12T04:16:21;101360.25;;;18.99;100.00
31082;BME280;17737;52.586;13.284;2023-08-12T04:18:49;101356.28;;;19.08;100.00
31082;BME280;17737;52.586;13.284;2023-08-12T04:21:17;101349.16;;;19.27;100.00
31082;BME280;17737;52.586;13.284;2023-08-12T04:23:45;101336.47;;;19.85;100.00
31082;BME280;17737;52.586;13.284;2023-08-12T04:26:13;101342.41;;;20.39;100.00
31082;BME280;17737;52.586;13.284;2023-08-12T04:28:41;101338.25;;;20.68;100.00
31082;BME280;17737;52.586;13.284;2023-08-12T04:31:09;101329.91;;;21.18;100.00
31082;BME280;17737;52.586;13.284;2023-08-12T04:33:39;101329.34;;;21.34;100.00
31082;BME280;17737;52.586;13.284;2023-08-12T04:36:07;101333.28;;;21.45;100.00
31082;BME280;17737;52.586;13.284;2023-08-12T04:38:35;101332.59;;;21.50;100.00
31082;BME280;17737;52.586;13.284;2023-08-12T04:41:03;101328.50;;;21.34;100.00
31082;BME280;17737;52.586;13.284;2023-08-12T04:43:31;101334.41;;;21.56;100.00
31082;BME280;17737;52.586;13.284;2023-08-12T04:45:59;101335.13;;;21.94;100.00
31082;BME280;17737;52.586;13.284;2023-08-12T04:48:27;101334.81;;;22.20;100.00
31082;BME280;17737;52.586;13.284;2023-08-12T04:50:56;101334.97;;;22.73;100.00
31082;BME280;17737;52.586;13.284;2023-08-12T04:53:27;101329.78;;;23.06;100.00
31082;BME280;17737;52.586;13.284;2023-08-12T04:55:55;101324.25;;;23.35;100.00
31082;BME280;17737;52.586;13.284;2023-08-12T04:58:23;101324.75;;;23.44;100.00
31082;BME280;17737;52.586;13.284;2023-08-12T05:00:52;101324.25;;;23.47;100.00
31082;BME280;17737;52.586;13.284;2023-08-12T05:03:20;101321.88;;;23.62;100.00
31082;BME280;17737;52.586;13.284;2023-08-12T05:05:49;101317.94;;;23.58;100.00
31082;BME280;17737;52.586;13.284;2023-08-12T05:08:19;101317.66;;;22.84;100.00
31082;BME280;17737;52.586;13.284;2023-08-12T05:10:48;101317.06;;;22.52;100.00
31082;BME280;17737;52.586;13.284;2023-08-12T05:13:16;101316.88;;;22.35;100.00
31082;BME280;17737;52.586;13.284;2023-08-12T05:15:45;101315.06;;;22.11;100.00
31082;BME280;17737;52.586;13.284;2023-08-12T05:18:14;101317.81;;;22.11;100.00
31082;BME280;17737;52.586;13.284;2023-08-12T05:20:42;101311.88;;;21.96;100.00
31082;BME280;17737;52.586;13.284;2023-08-12T05:23:13;101301.88;;;22.20;100.00
31082;BME280;17737;52.586;13.284;2023-08-12T05:25:42;101307.09;;;22.39;100.00
31082;BME280;17737;52.586;13.284;2023-08-12T05:28:10;101305.75;;;22.12;100.00
31082;BME280;17737;52.586;13.284;2023-08-12T05:30:38;101309.28;;;22.01;100.00
31082;BME280;17737;52.586;13.284;2023-08-12T05:33:06;101298.69;;;21.87;100.00
31082;BME280;17737;52.586;13.284;2023-08-12T05:35:35;101303.22;;;21.75;100.00
31082;BME280;17737;52.586;13.284;2023-08-12T05:38:03;101310.50;;;21.63;100.00
31082;BME280;17737;52.586;13.284;2023-08-12T05:40:31;101318.19;;;21.54;100.00
31082;BME280;17737;52.586;13.284;2023-08-12T05:43:01;101310.50;;;21.45;100.00
31082;BME280;17737;52.586;13.284;2023-08-12T05:45:29;101300.03;;;21.35;100.00
31082;BME280;17737;52.586;13.284;2023-08-12T05:47:57;101309.56;;;21.32;100.00
31082;BME280;17737;52.586;13.284;2023-08-12T05:50:26;101306.25;;;21.24;100.00
31082;BME280;17737;52.586;13.284;2023-08-12T05:52:54;101306.50;;;21.40;100.00
31082;BME280;17737;52.586;13.284;2023-08-12T05:55:22;101311.94;;;21.47;100.00
31082;BME280;17737;52.586;13.284;2023-08-12T05:57:50;101308.00;;;21.61;100.00
31082;BME280;17737;52.586;13.284;2023-08-12T06:00:19;101313.88;;;21.65;100.00
31082;BME280;17737;52.586;13.284;2023-08-12T06:02:47;101316.97;;;21.93;100.00
31082;BME280;17737;52.586;13.284;2023-08-12T06:05:18;101321.84;;;22.09;100.00
31082;BME280;17737;52.586;13.284;2023-08-12T06:07:46;101320.56;;;22.11;100.00
31082;BME280;17737;52.586;13.284;2023-08-12T06:10:14;101314.13;;;22.17;100.00
31082;BME280;17737;52.586;13.284;2023-08-12T06:12:42;101314.13;;;22.17;100.00
31082;BME280;17737;52.586;13.284;2023-08-12T06:15:10;101312.63;;;22.21;100.00
31082;BME280;17737;52.586;13.284;2023-08-12T06:17:40;101312.25;;;22.18;100.00
31082;BME280;17737;52.586;13.284;2023-08-12T06:20:09;101308.28;;;22.14;100.00
31082;BME280;17737;52.586;13.284;2023-08-12T06:22:37;101307.28;;;22.26;100.00
31082;BME280;17737;52.586;13.284;2023-08-12T06:25:06;101316.03;;;22.35;100.00
31082;BME280;17737;52.586;13.284;2023-08-12T06:27:35;101310.47;;;22.53;100.00
31082;BME280;17737;52.586;13.284;2023-08-12T06:30:03;101306.63;;;22.61;100.00
31082;BME280;17737;52.586;13.284;2023-08-12T06:32:33;101304.69;;;22.61;100.00
31082;BME280;17737;52.586;13.284;2023-08-12T06:35:03;101305.41;;;22.57;100.00
31082;BME280;17737;52.586;13.284;2023-08-12T06:37:32;101307.56;;;22.36;100.00
31082;BME280;17737;52.586;13.284;2023-08-12T06:40:00;101301.31;;;22.29;100.00
31082;BME280;17737;52.586;13.284;2023-08-12T06:42:28;101301.25;;;22.47;100.00
31082;BME280;17737;52.586;13.284;2023-08-12T06:44:57;101301.25;;;22.66;100.00
31082;BME280;17737;52.586;13.284;2023-08-12T06:47:26;101301.25;;;22.66;100.00
31082;BME280;17737;52.586;13.284;2023-08-12T06:49:56;101305.94;;;22.77;100.00
31082;BME280;17737;52.586;13.284;2023-08-12T06:52:25;101299.91;;;22.98;100.00
31082;BME280;17737;52.586;13.284;2023-08-12T06:54:53;101296.94;;;23.11;100.00
31082;BME280;17737;52.586;13.284;2023-08-12T06:57:21;101292.81;;;23.31;100.00
31082;BME280;17737;52.586;13.284;2023-08-12T06:59:49;101291.81;;;23.26;100.00
31082;BME280;17737;52.586;13.284;2023-08-12T07:02:18;101294.38;;;23.39;100.00
31082;BME280;17737;52.586;13.284;2023-08-12T07:04:45;101292.94;;;23.36;100.00
31082;BME280;17737;52.586;13.284;2023-08-12T07:07:13;101282.75;;;23.48;100.00
31082;BME280;17737;52.586;13.284;2023-08-12T07:09:43;101282.50;;;23.73;100.00
31082;BME280;17737;52.586;13.284;2023-08-12T07:12:11;101285.28;;;23.73;100.00
31082;BME280;17737;52.586;13.284;2023-08-12T07:14:39;101288.69;;;23.92;100.00
31082;BME280;17737;52.586;13.284;2023-08-12T07:17:07;101285.34;;;24.01;100.00
31082;BME280;17737;52.586;13.284;2023-08-12T07:19:35;101278.03;;;24.07;100.00
31082;BME280;17737;52.586;13.284;2023-08-12T07:22:08;101278.38;;;24.10;100.00
31082;BME280;17737;52.586;13.284;2023-08-12T07:24:36;101274.50;;;24.51;100.00
31082;BME280;17737;52.586;13.284;2023-08-12T07:27:06;101274.19;;;24.64;100.00
31082;BME280;17737;52.586;13.284;2023-08-12T07:29:34;101272.94;;;25.00;100.00
31082;BME280;17737;52.586;13.284;2023-08-12T07:32:02;101276.91;;;25.37;100.00
31082;BME280;17737;52.586;13.284;2023-08-12T07:34:30;101271.09;;;25.55;100.00
31082;BME280;17737;52.586;13.284;2023-08-12T07:36:58;101272.84;;;25.28;100.00
31082;BME280;17737;52.586;13.284;2023-08-12T07:39:26;101273.53;;;25.51;100.00
31082;BME280;17737;52.586;13.284;2023-08-12T07:41:54;101277.44;;;25.22;100.00
31082;BME280;17737;52.586;13.284;2023-08-12T07:44:24;101275.88;;;25.43;100.00
31082;BME280;17737;52.586;13.284;2023-08-12T07:46:52;101275.84;;;24.93;100.00
31082;BME280;17737;52.586;13.284;2023-08-12T07:49:21;101270.75;;;25.02;100.00
31082;BME280;17737;52.586;13.284;2023-08-12T07:51:49;101273.25;;;24.70;100.00
31082;BME280;17737;52.586;13.284;2023-08-12T07:54:17;101276.94;;;24.75;100.00
31082;BME280;17737;52.586;13.284;2023-08-12T07:56:45;101271.50;;;24.52;100.00
31082;BME280;17737;52.586;13.284;2023-08-12T07:59:13;101272.59;;;24.23;100.00
31082;BME280;17737;52.586;13.284;2023-08-12T08:01:43;101260.19;;;24.09;100.00
31082;BME280;17737;52.586;13.284;2023-08-12T08:04:12;101261.03;;;24.10;100.00
31082;BME280;17737;52.586;13.284;2023-08-12T08:06:39;101263.22;;;23.85;100.00
31082;BME280;17737;52.586;13.284;2023-08-12T08:09:08;101264.06;;;23.85;100.00
31082;BME280;17737;52.586;13.284;2023-08-12T08:11:36;101262.47;;;23.89;100.00
31082;BME280;17737;52.586;13.284;2023-08-12T08:14:04;101269.34;;;23.75;100.00
31082;BME280;17737;52.586;13.284;2023-08-12T08:16:32;101269.72;;;23.55;100.00
31082;BME280;17737;52.586;13.284;2023-08-12T08:19:02;101273.78;;;23.53;100.00
31082;BME280;17737;52.586;13.284;2023-08-12T08:21:30;101277.00;;;23.73;100.00
31082;BME280;17737;52.586;13.284;2023-08-12T08:23:58;101277.16;;;23.66;100.00
31082;BME280;17737;52.586;13.284;2023-08-12T08:26:26;101271.66;;;23.43;100.00
31082;BME280;17737;52.586;13.284;2023-08-12T08:28:54;101265.44;;;23.36;100.00
31082;BME280;17737;52.586;13.284;2023-08-12T08:31:22;101273.78;;;23.53;100.00
31082;BME280;17737;52.586;13.284;2023-08-12T08:33:51;101279.88;;;23.55;100.00
31082;BME280;17737;52.586;13.284;2023-08-12T08:36:20;101277.59;;;23.63;100.00
31082;BME280;17737;52.586;13.284;2023-08-12T08:38:50;101275.47;;;23.54;100.00
31082;BME280;17737;52.586;13.284;2023-08-12T08:41:19;101279.75;;;23.61;100.00
31082;BME280;17737;52.586;13.284;2023-08-12T08:43:48;101274.03;;;23.51;100.00
31082;BME280;17737;52.586;13.284;2023-08-12T08:46:16;101279.66;;;23.45;100.00
31082;BME280;17737;52.586;13.284;2023-08-12T08:48:45;101276.41;;;23.48;100.00
31082;BME280;17737;52.586;13.284;2023-08-12T08:51:21;101269.84;;;23.49;100.00
31082;BME280;17737;52.586;13.284;2023-08-12T08:53:50;101269.75;;;23.32;100.00
31082;BME280;17737;52.586;13.284;2023-08-12T08:56:28;101267.66;;;23.05;100.00
31082;BME280;17737;52.586;13.284;2023-08-12T08:58:57;101258.44;;;23.11;100.00
31082;BME280;17737;52.586;13.284;2023-08-12T09:01:27;101245.56;;;23.34;100.00
31082;BME280;17737;52.586;13.284;2023-08-12T09:03:57;101241.06;;;24.03;100.00
31082;BME280;17737;52.586;13.284;2023-08-12T09:06:28;101237.66;;;23.61;100.00
31082;BME280;17737;52.586;13.284;2023-08-12T09:08:57;101240.44;;;23.38;100.00
31082;BME280;17737;52.586;13.284;2023-08-12T09:11:25;101242.34;;;23.49;100.00
31082;BME280;17737;52.586;13.284;2023-08-12T09:13:54;101245.38;;;23.87;100.00
31082;BME280;17737;52.586;13.284;2023-08-12T09:16:22;101250.59;;;24.40;100.00
31082;BME280;17737;52.586;13.284;2023-08-12T09:18:55;101260.63;;;24.74;100.00
31082;BME280;17737;52.586;13.284;2023-08-12T09:21:23;101260.06;;;25.05;100.00
31082;BME280;17737;52.586;13.284;2023-08-12T09:23:53;101256.91;;;24.97;100.00
31082;BME280;17737;52.586;13.284;2023-08-12T09:26:24;101266.78;;;24.93;100.00
31082;BME280;17737;52.586;13.284;2023-08-12T09:28:55;101259.75;;;25.02;100.00
31082;BME280;17737;52.586;13.284;2023-08-12T09:31:24;101264.09;;;25.14;100.00
31082;BME280;17737;52.586;13.284;2023-08-12T09:33:58;101272.78;;;25.39;100.00
31082;BME280;17737;52.586;13.284;2023-08-12T09:36:28;101264.91;;;25.31;100.00
31082;BME280;17737;52.586;13.284;2023-08-12T09:39:05;101256.38;;;25.33;100.00
31082;BME280;17737;52.586;13.284;2023-08-12T09:41:33;101249.22;;;24.99;100.00
31082;BME280;17737;52.586;13.284;2023-08-12T09:44:02;101237.09;;;24.83;100.00
31082;BME280;17737;52.586;13.284;2023-08-12T09:46:33;101230.97;;;25.31;100.00
31082;BME280;17737;52.586;13.284;2023-08-12T09:49:01;101235.00;;;25.23;100.00
31082;BME280;17737;52.586;13.284;2023-08-12T09:51:34;101236.19;;;25.11;100.00
31082;BME280;17737;52.586;13.284;2023-08-12T09:54:09;101228.09;;;25.04;100.00
31082;BME280;17737;52.586;13.284;2023-08-12T09:56:48;101228.31;;;25.19;100.00
31082;BME280;17737;52.586;13.284;2023-08-12T09:59:19;101235.41;;;25.15;100.00
31082;BME280;17737;52.586;13.284;2023-08-12T10:01:52;101235.44;;;24.99;100.00
31082;BME280;17737;52.586;13.284;2023-08-12T10:04:22;101233.59;;;25.04;100.00
31082;BME280;17737;52.586;13.284;2023-08-12T10:06:55;101233.66;;;24.76;100.00
31082;BME280;17737;52.586;13.284;2023-08-12T10:09:24;101236.59;;;24.69;100.00
31082;BME280;17737;52.586;13.284;2023-08-12T10:11:53;101228.13;;;24.59;100.00
31082;BME280;17737;52.586;13.284;2023-08-12T10:14:23;101227.59;;;24.62;100.00
31082;BME280;17737;52.586;13.284;2023-08-12T10:16:52;101216.66;;;24.67;100.00
31082;BME280;17737;52.586;13.284;2023-08-12T10:19:31;101221.25;;;24.62;100.00
31082;BME280;17737;52.586;13.284;2023-08-12T10:22:02;101220.22;;;24.79;100.00
31082;BME280;17737;52.586;13.284;2023-08-12T10:24:33;101221.81;;;25.09;100.00
31082;BME280;17737;52.586;13.284;2023-08-12T10:27:03;101212.53;;;25.15;100.00
31082;BME280;17737;52.586;13.284;2023-08-12T10:29:32;101210.53;;;25.10;100.00
31082;BME280;17737;52.586;13.284;2023-08-12T10:32:02;101208.63;;;25.49;100.00
31082;BME280;17737;52.586;13.284;2023-08-12T10:34:30;101201.34;;;25.59;100.00
31082;BME280;17737;52.586;13.284;2023-08-12T10:37:01;101190.25;;;25.76;100.00
31082;BME280;17737;52.586;13.284;2023-08-12T10:39:32;101188.16;;;25.88;100.00
31082;BME280;17737;52.586;13.284;2023-08-12T10:42:01;101189.84;;;25.89;100.00
31082;BME280;17737;52.586;13.284;2023-08-12T10:44:39;101192.72;;;25.99;100.00
31082;BME280;17737;52.586;13.284;2023-08-12T10:47:08;101192.13;;;26.19;100.00
31082;BME280;17737;52.586;13.284;2023-08-12T10:49:38;101194.91;;;26.45;100.00
31082;BME280;17737;52.586;13.284;2023-08-12T10:52:25;101198.66;;;26.92;100.00
31082;BME280;17737;52.586;13.284;2023-08-12T10:55:15;101206.03;;;27.13;100.00
31082;BME280;17737;52.586;13.284;2023-08-12T10:57:44;101210.59;;;27.35;100.00
31082;BME280;17737;52.586;13.284;2023-08-12T11:00:14;101205.78;;;27.62;100.00
31082;BME280;17737;52.586;13.284;2023-08-12T11:02:49;101200.88;;;27.79;100.00
31082;BME280;17737;52.586;13.284;2023-08-12T11:05:18;101191.69;;;27.63;100.00
31082;BME280;17737;52.586;13.284;2023-08-12T11:07:48;101182.88;;;27.81;100.00
31082;BME280;17737;52.586;13.284;2023-08-12T11:10:25;101180.81;;;27.52;100.00
31082;BME280;17737;52.586;13.284;2023-08-12T11:12:59;101178.13;;;27.20;100.00
31082;BME280;17737;52.586;13.284;2023-08-12T11:15:31;101182.63;;;27.31;100.00
31082;BME280;17737;52.586;13.284;2023-08-12T11:18:02;101185.28;;;27.58;100.00
31082;BME280;17737;52.586;13.284;2023-08-12T11:20:31;101184.78;;;27.76;100.00
31082;BME280;17737;52.586;13.284;2023-08-12T11:23:00;101185.66;;;27.81;100.00
31082;BME280;17737;52.586;13.284;2023-08-12T11:25:32;101178.66;;;27.64;100.00
31082;BME280;17737;52.586;13.284;2023-08-12T11:28:01;101188.63;;;27.60;100.00
31082;BME280;17737;52.586;13.284;2023-08-12T11:30:29;101176.97;;;27.58;100.00
31082;BME280;17737;52.586;13.284;2023-08-12T11:33:00;101180.00;;;27.14;100.00
31082;BME280;17737;52.586;13.284;2023-08-12T11:35:29;101178.28;;;27.03;100.00
31082;BME280;17737;52.586;13.284;2023-08-12T11:37:58;101183.88;;;27.13;100.00
31082;BME280;17737;52.586;13.284;2023-08-12T11:40:27;101180.03;;;26.78;100.00
31082;BME280;17737;52.586;13.284;2023-08-12T11:42:57;101179.66;;;26.43;100.00
31082;BME280;17737;52.586;13.284;2023-08-12T11:45:25;101205.44;;;25.57;100.00
31082;BME280;17737;52.586;13.284;2023-08-12T11:47:54;101223.22;;;24.95;100.00
31082;BME280;17737;52.586;13.284;2023-08-12T11:50:24;101215.56;;;24.80;100.00
31082;BME280;17737;52.586;13.284;2023-08-12T11:52:55;101216.97;;;24.82;100.00
31082;BME280;17737;52.586;13.284;2023-08-12T11:55:25;101229.75;;;24.89;100.00
31082;BME280;17737;52.586;13.284;2023-08-12T11:57:53;101231.19;;;25.08;100.00
31082;BME280;17737;52.586;13.284;2023-08-12T12:00:25;101222.66;;;24.93;100.00
31082;BME280;17737;52.586;13.284;2023-08-12T12:02:54;101230.44;;;24.96;100.00
31082;BME280;17737;52.586;13.284;2023-08-12T12:05:25;101226.81;;;24.95;100.00
31082;BME280;17737;52.586;13.284;2023-08-12T12:07:56;101220.53;;;25.00;100.00
31082;BME280;17737;52.586;13.284;2023-08-12T12:10:27;101220.81;;;24.81;100.00
31082;BME280;17737;52.586;13.284;2023-08-12T12:13:02;101216.78;;;24.72;100.00
31082;BME280;17737;52.586;13.284;2023-08-12T12:15:38;101216.75;;;24.56;100.00
31082;BME280;17737;52.586;13.284;2023-08-12T12:18:12;101227.41;;;24.36;100.00
31082;BME280;17737;52.586;13.284;2023-08-12T12:20:56;101212.88;;;24.40;100.00
31082;BME280;17737;52.586;13.284;2023-08-12T12:23:28;101205.50;;;24.74;100.00
31082;BME280;17737;52.586;13.284;2023-08-12T12:25:59;101192.16;;;24.82;100.00
31082;BME280;17737;52.586;13.284;2023-08-12T12:28:28;101176.25;;;25.23;100.00
31082;BME280;17737;52.586;13.284;2023-08-12T12:30:58;101156.34;;;25.21;100.00
31082;BME280;17737;52.586;13.284;2023-08-12T12:33:26;101147.03;;;25.05;100.00
31082;BME280;17737;52.586;13.284;2023-08-12T12:35:55;101149.00;;;24.71;100.00
31082;BME280;17737;52.586;13.284;2023-08-12T12:38:27;101137.97;;;24.71;100.00
31082;BME280;17737;52.586;13.284;2023-08-12T12:40:55;101143.72;;;24.70;100.00